SBRJ Airport Information

Runway Information
Runway 02L Length 4134 ft width 98 ft
Elevation 0 ft Threshold 0 ft Heading 0
Runway 20R Length 4134 ft Width 98 ft
Elevation 0 ft Threshold 0 ft Heading 0
Runway 02R Length 4341 ft width 138 ft
Elevation 0 ft Threshold 0 ft Heading 0
Runway 20L Length 4341 ft Width 138 ft
Elevation 0 ft Threshold 0 ft Heading 0
Airport Frequencies
Type APP Name RIO CON Frequency 119.35 MHZ
Type ATIS Name ATIS Frequency 132.65 MHZ
Type CLD Name TFC Frequency 121.05 MHZ
Type GND Name GND Frequency 121.7 MHZ
Type TWR Name RIO TWR Frequency 118.7 MHZ
Airport Navaids
Type NDB Name Paiol Frequency 415 KHZ
Airport Weather Information & NOTAM
ADDS - METARS form results

(2226 UTC 20 June 2018)
 
METAR text: SBRJ 202200Z 19007KT CAVOK 22/19 Q1021
Conditions at: SBRJ (SANTOS DUMONT/RI, BR) observed 2200 UTC 20 June 2018
Temperature: 22.0°C (72°F)
Dewpoint: 19.0°C (66°F) [RH = 83%]
Pressure (altimeter): 30.15 inches Hg (1021.0 mb)
Winds: from the S (190 degrees) at 8 MPH (7 knots; 3.6 m/s)
Visibility: 6 or more miles (10+ km)
Ceiling: ceiling and visibility are OK
Clouds: unknown
Weather: no significant weather observed at this time